• Join FlightAware (Why Join?)
  • Login
  • US Flag 
06:00AM EDT


 

Airport Tracker/Info


-or-


 

Live Flight TrackerFlight Track Log ✈ N319EE ✈ 08-Oct-2013 ✈ KPWM - KBGM

Flight Track Log - Related Links

Times and Time Zones

All times are in EDT time to prevent confusion due to time zone crossing. See the N319EE flight status page for this flight to view local times or setup timezone preferences in your user account.

Time Position Orientation Groundspeed Altitude Reporting Facility
EDT Latitude Longitude Course Direction KTS MPH feet Rate Location/Type
05:51PM 43.6814 -70.5683 286° West 165 190 9,400  Level Boston Center
05:52PM 43.6928 -70.6283 285° West 170 196 10,400 960 Climbing Boston Center
05:53PM 43.5502 -70.7321 255° West  Level Estimated
05:53PM 43.7086 -70.7167 284° West 202 232 11,400  Level Boston Center
05:54PM 43.5309 -70.8166 260° West  Level Estimated
05:54PM 43.7203 -70.7942 282° West 221 254 12,400  Level Boston Center
05:55PM 43.7008 -70.8864 254° West 221 254 13,500 960 Climbing Boston Center
05:56PM 43.6808 -70.9586 249° West 226 260 14,400 900 Climbing Boston Center
05:57PM 43.6547 -71.0425 247° West 231 266 15,400 780 Climbing Boston Center
05:58PM 43.6372 -71.1378 256° West 236 272 16,000 300 Climbing Boston Center
05:59PM 43.6236 -71.2239 258° West 250 288 16,000  Level Boston Center
06:00PM 43.6058 -71.3189 256° West 261 300 16,100  Climbing Boston Center
06:01PM 43.5858 -71.4311 256° West 266 306 16,100  Level Boston Center
06:02PM 43.5678 -71.5175 254° West 266 306 16,100  Level Boston Center
06:03PM 43.5394 -71.6181 249° West 259 298 16,100  Level Boston Center
06:04PM 43.5172 -71.6986 249° West 264 304 16,100  Level Boston Center
06:05PM 43.4906 -71.8019 250° West 258 297 16,100  Level Boston Center
06:06PM 43.4681 -71.8822 249° West 258 297 16,100  Level Boston Center
06:07PM 43.4394 -71.9797 248° West 258 297 16,100  Level Boston Center
06:08PM 43.4128 -72.0742 249° West 258 297 16,100 -60 Level Boston Center
06:09PM 43.3858 -72.1658 248° West 258 297 16,000 -60 Descending Boston Center
06:10PM 43.3631 -72.2489 249° West 258 297 16,000  Level Boston Center
06:11PM 43.3361 -72.3517 250° West 258 297 16,000  Level Boston Center
06:12PM 43.3092 -72.4431 248° West 258 297 16,000  Level Boston Center
06:13PM 43.2819 -72.5369 248° West 263 303 16,000  Level Boston Center
06:14PM 43.2547 -72.6283 248° West 263 303 16,000  Level Boston Center
06:15PM 43.2275 -72.7222 248° West 263 303 16,000  Level Boston Center
06:16PM 43.2000 -72.8133 248° West 268 308 16,000  Level Boston Center
06:17PM 43.1725 -72.9069 248° West 268 308 16,000  Level Boston Center
06:18PM 43.1472 -72.9922 248° West 274 315 16,000  Level Boston Center
06:19PM 43.1156 -73.0914 246° West 263 303 16,000  Level Boston Center
06:20PM 43.0900 -73.1764 248° West 263 303 16,000  Level Boston Center
06:21PM 43.0581 -73.2783 247° West 270 311 16,000  Level Boston Center
06:22PM 43.0344 -73.3633 249° West 270 311 16,000  Level Boston Center
06:23PM 43.0022 -73.4678 247° West 275 316 16,000  Level Boston Center
06:24PM 42.9786 -73.5497 249° West 270 311 16,000  Level Boston Center
06:25PM 42.9461 -73.6542 247° West 270 311 16,000  Level Boston Center
06:26PM 42.9181 -73.7472 248° West 270 311 16,000  Level Boston Center
06:27PM 42.8878 -73.8400 246° West 270 311 16,000  Level Boston Center
06:28PM 42.8639 -73.9131 246° West 270 311 16,000  Level Boston Center
06:29PM 42.8314 -74.0197 247° West 275 316 16,000  Level Boston Center
06:30PM 42.7964 -74.1181 244° Southwest 268 308 16,000  Level Boston Center
06:31PM 42.7658 -74.2133 246° West 262 302 16,000  Level Boston Center
06:32PM 42.7375 -74.2972 245° Southwest 273 314 16,000  Level Boston Center
06:33PM 42.7044 -74.3981 246° West 273 314 16,000  Level Boston Center
06:34PM 42.6781 -74.4819 247° West 273 314 16,100  Climbing Boston Center
06:35PM 42.6428 -74.5825 245° Southwest 273 314 16,100  Level Boston Center
06:36PM 42.6142 -74.6661 245° Southwest 273 314 16,100  Level Boston Center
06:37PM 42.5808 -74.7664 246° West 273 314 16,100 -60 Level Boston Center
06:38PM 42.5519 -74.8528 246° West 273 314 16,000 -600 Descending Boston Center
06:39PM 42.5206 -74.9500 246° West 273 314 15,000 -1,020 Descending Boston Center
06:41PM 42.4845 -75.0883 251° West  Level FlightAware Approximate
06:48PM 42.2934 -75.6933 251° West  Level FlightAware Approximate
06:49PM 42.2650 -75.7792 242° Southwest  Level FlightAware Approximate
06:50PM 42.2364 -75.8500 180° South  Level FlightAware Approximate
06:51PM 42.2187 -75.9379 257° West  Level FlightAware Approximate
06:52PM 42.2000 -75.9667 217° Southwest  Level FlightAware Approximate
06:53PM 42.2084 -75.9796 217° Southwest  Level Estimated
06:54PM 42.2084 -75.9796 217° Southwest  Level Estimated
06:55PM 42.2084 -75.9796 217° Southwest  Level Estimated